createdAt,value
2018-12-14T00:00:20.442Z,1.93
2018-12-14T00:02:47.939Z,1.84
2018-12-14T00:05:15.507Z,1.88
2018-12-14T00:07:43.052Z,1.79
2018-12-14T00:10:10.573Z,1.76
2018-12-14T00:12:38.038Z,1.81
2018-12-14T00:15:06.086Z,1.80
2018-12-14T00:17:33.675Z,1.83
2018-12-14T00:20:01.189Z,1.84
2018-12-14T00:22:28.699Z,1.89
2018-12-14T00:24:56.187Z,1.78
2018-12-14T00:27:23.989Z,1.64
2018-12-14T00:29:51.577Z,1.77
2018-12-14T00:32:19.294Z,1.56
2018-12-14T00:34:46.734Z,1.75
2018-12-14T00:37:14.368Z,1.83
2018-12-14T00:39:41.820Z,1.90
2018-12-14T00:42:09.342Z,1.64
2018-12-14T00:44:36.875Z,1.87
2018-12-14T00:47:04.395Z,1.97
2018-12-14T00:49:31.874Z,1.93
2018-12-14T00:51:59.420Z,1.79
2018-12-14T00:54:26.877Z,1.83
2018-12-14T00:56:54.407Z,1.80
2018-12-14T00:59:21.895Z,1.83
2018-12-14T01:01:49.415Z,1.52
2018-12-14T01:04:16.902Z,1.78
2018-12-14T01:06:44.408Z,1.72
2018-12-14T01:09:11.959Z,1.70
2018-12-14T01:11:39.498Z,1.74
2018-12-14T01:14:07.017Z,1.88
2018-12-14T01:16:34.529Z,1.78
2018-12-14T01:19:02.030Z,1.73
2018-12-14T01:21:29.489Z,1.77
2018-12-14T01:23:56.997Z,1.90
2018-12-14T01:26:24.679Z,1.75
2018-12-14T01:28:52.155Z,1.80
2018-12-14T01:31:19.723Z,1.66
2018-12-14T01:33:47.178Z,1.76
2018-12-14T01:36:14.674Z,1.77
2018-12-14T01:38:42.143Z,1.42
2018-12-14T01:41:09.626Z,1.69
2018-12-14T01:43:37.276Z,1.75
2018-12-14T01:46:04.763Z,1.65
2018-12-14T01:48:32.266Z,1.79
2018-12-14T01:50:59.738Z,1.72
2018-12-14T01:53:27.231Z,1.76
2018-12-14T01:55:54.737Z,1.63
2018-12-14T01:58:22.253Z,1.64
2018-12-14T02:00:49.738Z,1.50
2018-12-14T02:03:17.312Z,1.72
2018-12-14T02:05:44.884Z,1.47
2018-12-14T02:08:12.402Z,1.59
2018-12-14T02:10:39.984Z,1.61
2018-12-14T02:13:07.544Z,1.56
2018-12-14T02:15:35.042Z,1.66
2018-12-14T02:18:02.564Z,1.41
2018-12-14T02:20:30.057Z,1.43
2018-12-14T02:22:57.736Z,1.56
2018-12-14T02:25:25.280Z,1.61
2018-12-14T02:27:52.789Z,1.61
2018-12-14T02:30:32.234Z,1.58
2018-12-14T02:32:59.730Z,1.59
2018-12-14T02:35:27.206Z,1.61
2018-12-14T02:37:55.111Z,1.49
2018-12-14T02:40:22.628Z,1.50
2018-12-14T02:42:50.177Z,1.53
2018-12-14T02:45:17.718Z,1.39
2018-12-14T02:47:45.270Z,1.49
2018-12-14T02:50:13.054Z,1.37
2018-12-14T02:52:40.564Z,1.49
2018-12-14T02:55:08.068Z,1.50
2018-12-14T02:57:35.556Z,1.52
2018-12-14T03:00:04.362Z,1.39
2018-12-14T03:02:31.869Z,1.24
2018-12-14T03:04:59.381Z,1.35
2018-12-14T03:07:26.846Z,1.02
2018-12-14T03:09:54.334Z,1.32
2018-12-14T03:12:26.623Z,1.45
2018-12-14T03:14:51.345Z,1.37
2018-12-14T03:17:19.024Z,1.43
2018-12-14T03:19:46.528Z,1.44
2018-12-14T03:22:14.648Z,1.41
2018-12-14T03:24:42.109Z,1.39
2018-12-14T03:27:09.574Z,1.22
2018-12-14T03:29:37.101Z,1.12
2018-12-14T03:32:04.600Z,1.13
2018-12-14T03:34:32.145Z,1.10
2018-12-14T03:36:59.629Z,0.96
2018-12-14T03:39:27.143Z,1.15
2018-12-14T03:41:54.585Z,1.25
2018-12-14T03:44:22.091Z,1.33
2018-12-14T03:46:49.573Z,1.42
2018-12-14T03:49:17.067Z,1.29
2018-12-14T03:51:44.561Z,1.18
2018-12-14T03:54:12.145Z,1.11
2018-12-14T03:56:39.659Z,1.20
2018-12-14T03:59:07.153Z,1.22
2018-12-14T04:01:34.626Z,1.15
2018-12-14T04:04:02.166Z,1.37
2018-12-14T04:06:29.653Z,1.31
2018-12-14T04:08:57.128Z,1.31
2018-12-14T04:11:24.639Z,1.17
2018-12-14T04:13:52.212Z,1.05
2018-12-14T04:16:19.670Z,1.04
2018-12-14T04:18:47.127Z,1.21
2018-12-14T04:21:14.640Z,1.14
2018-12-14T04:23:42.095Z,1.20
2018-12-14T04:26:10.198Z,1.23
2018-12-14T04:28:37.676Z,1.31
2018-12-14T04:31:05.210Z,1.27
2018-12-14T04:33:32.874Z,1.38
2018-12-14T04:36:00.396Z,1.36
2018-12-14T04:38:27.842Z,1.43
2018-12-14T04:40:55.301Z,1.23
2018-12-14T04:43:22.824Z,1.26
2018-12-14T04:45:50.358Z,1.32
2018-12-14T04:48:17.826Z,1.14
2018-12-14T04:50:45.329Z,0.93
2018-12-14T04:53:12.782Z,1.00
2018-12-14T04:55:40.345Z,1.11
2018-12-14T04:58:07.886Z,1.24
2018-12-14T05:00:35.402Z,1.05
2018-12-14T05:03:02.953Z,1.01
2018-12-14T05:05:30.479Z,0.98
2018-12-14T05:07:57.948Z,1.09
2018-12-14T05:10:25.563Z,1.03
2018-12-14T05:12:56.032Z,1.04
2018-12-14T05:15:22.569Z,1.03
2018-12-14T05:17:50.015Z,0.86
2018-12-14T05:20:17.483Z,0.84
2018-12-14T05:22:44.989Z,1.00
2018-12-14T05:25:12.559Z,1.09
2018-12-14T05:27:40.052Z,1.09
2018-12-14T05:30:08.038Z,0.82
2018-12-14T05:32:35.559Z,0.94
2018-12-14T05:35:03.077Z,1.10
2018-12-14T05:37:30.568Z,0.99
2018-12-14T05:39:58.145Z,1.07
2018-12-14T05:42:25.621Z,1.13
2018-12-14T05:44:53.075Z,0.98
2018-12-14T05:47:20.557Z,1.12
2018-12-14T05:49:48.055Z,1.07
2018-12-14T05:52:15.563Z,0.97
2018-12-14T05:54:43.141Z,1.00
2018-12-14T05:57:10.739Z,1.02
2018-12-14T05:59:38.269Z,0.86
2018-12-14T06:02:05.864Z,0.84
2018-12-14T06:04:33.351Z,0.88
2018-12-14T06:07:00.827Z,1.04
2018-12-14T06:09:28.301Z,1.11
2018-12-14T06:11:55.760Z,1.17
2018-12-14T06:14:23.279Z,1.09
2018-12-14T06:16:50.765Z,0.99
2018-12-14T06:19:18.329Z,1.21
2018-12-14T06:21:45.879Z,1.23
2018-12-14T06:24:13.346Z,1.19
2018-12-14T06:26:40.902Z,1.19
2018-12-14T06:29:08.378Z,1.18
2018-12-14T06:31:35.944Z,1.22
2018-12-14T06:34:03.465Z,0.92
2018-12-14T06:36:31.007Z,1.01
2018-12-14T06:38:58.538Z,0.95
2018-12-14T06:41:26.051Z,1.04
2018-12-14T06:43:53.673Z,1.03
2018-12-14T06:46:21.126Z,0.88
2018-12-14T06:48:48.623Z,1.05
2018-12-14T06:51:16.141Z,1.12
2018-12-14T06:53:43.624Z,1.27
2018-12-14T06:56:11.109Z,1.18
2018-12-14T06:58:38.641Z,1.03
2018-12-14T07:01:06.157Z,1.07
2018-12-14T07:03:33.610Z,1.10
2018-12-14T07:06:01.103Z,1.01
2018-12-14T07:08:28.658Z,0.84
2018-12-14T07:10:56.121Z,1.04
2018-12-14T07:13:23.591Z,1.17
2018-12-14T07:15:51.093Z,0.94
2018-12-14T07:18:18.569Z,1.07
2018-12-14T07:20:46.079Z,1.05
2018-12-14T07:23:13.545Z,1.15
2018-12-14T07:25:41.016Z,1.26
2018-12-14T07:28:08.489Z,1.36
2018-12-14T07:30:36.017Z,1.13
2018-12-14T07:33:03.501Z,1.15
2018-12-14T07:35:31.078Z,1.20
2018-12-14T07:37:58.592Z,1.31
2018-12-14T07:40:26.043Z,1.22
2018-12-14T07:42:53.536Z,1.14
2018-12-14T07:45:20.995Z,1.16
2018-12-14T07:47:48.592Z,1.13
2018-12-14T07:50:16.079Z,1.05
2018-12-14T07:52:43.582Z,1.10
2018-12-14T07:55:11.081Z,1.18
2018-12-14T07:57:38.546Z,1.08
2018-12-14T08:00:08.066Z,1.07
2018-12-14T08:02:35.620Z,1.21
2018-12-14T08:05:04.056Z,1.07
2018-12-14T08:07:31.548Z,1.23
2018-12-14T08:09:59.038Z,1.20
2018-12-14T08:12:26.565Z,1.23
2018-12-14T08:14:54.068Z,1.18
2018-12-14T08:17:21.556Z,1.15
2018-12-14T08:19:48.992Z,1.08
2018-12-14T08:22:16.493Z,1.02
2018-12-14T08:24:44.014Z,1.12
2018-12-14T08:27:11.568Z,1.14
2018-12-14T08:29:39.227Z,1.16
2018-12-14T08:32:06.715Z,1.29
2018-12-14T08:34:34.288Z,1.19
2018-12-14T08:37:01.755Z,1.42
2018-12-14T08:39:29.223Z,1.37
2018-12-14T08:41:56.701Z,1.53
2018-12-14T08:44:24.235Z,1.45
2018-12-14T08:46:51.779Z,1.52
2018-12-14T08:49:19.250Z,1.30
2018-12-14T08:51:46.832Z,1.55
2018-12-14T08:54:14.337Z,1.50
2018-12-14T08:56:41.966Z,1.61
2018-12-14T08:59:09.483Z,1.58
2018-12-14T09:01:36.977Z,1.52
2018-12-14T09:04:04.479Z,1.52
2018-12-14T09:06:32.018Z,1.46
2018-12-14T09:08:59.591Z,1.50
2018-12-14T09:11:27.135Z,1.47
2018-12-14T09:13:54.647Z,1.55
2018-12-14T09:16:22.196Z,1.61
2018-12-14T09:18:49.756Z,1.46
2018-12-14T09:21:17.258Z,1.74
2018-12-14T09:23:44.762Z,1.78
2018-12-14T09:26:12.532Z,1.77
2018-12-14T09:28:40.198Z,1.67
2018-12-14T09:31:07.707Z,1.59
2018-12-14T09:33:35.294Z,1.45
2018-12-14T09:36:02.822Z,1.59
2018-12-14T09:38:30.311Z,1.39
2018-12-14T09:40:57.976Z,1.39
2018-12-14T09:43:25.509Z,1.53
2018-12-14T09:45:53.008Z,1.46
2018-12-14T09:48:20.584Z,1.31
2018-12-14T09:50:48.291Z,1.42
2018-12-14T09:53:15.852Z,1.62
2018-12-14T09:55:43.385Z,1.70
2018-12-14T09:58:10.872Z,1.81
2018-12-14T10:00:38.388Z,1.35
2018-12-14T10:03:05.864Z,1.37
2018-12-14T10:05:33.439Z,1.55
2018-12-14T10:08:00.920Z,1.39
2018-12-14T10:10:28.444Z,1.59
2018-12-14T10:12:55.931Z,1.66
2018-12-14T10:15:23.525Z,1.59
2018-12-14T10:17:51.023Z,1.58
2018-12-14T10:20:18.554Z,1.76
2018-12-14T10:22:46.021Z,1.80
2018-12-14T10:25:13.514Z,1.81
2018-12-14T10:27:41.015Z,1.79
2018-12-14T10:30:09.548Z,1.76
2018-12-14T10:32:37.078Z,1.66
2018-12-14T10:35:07.666Z,1.60
2018-12-14T10:37:35.178Z,1.64
2018-12-14T10:40:02.692Z,1.60
2018-12-14T10:42:30.686Z,1.62
2018-12-14T10:44:58.279Z,1.70
2018-12-14T10:47:25.780Z,1.63
2018-12-14T10:49:53.334Z,1.68
2018-12-14T10:52:20.925Z,1.79
2018-12-14T10:54:48.589Z,1.79
2018-12-14T10:57:16.343Z,1.84
2018-12-14T10:59:44.062Z,1.89
2018-12-14T11:02:11.746Z,2.07
2018-12-14T11:04:39.954Z,2.22
2018-12-14T11:07:07.494Z,2.01
2018-12-14T11:09:35.385Z,2.03
2018-12-14T11:12:02.901Z,1.96
2018-12-14T11:14:30.383Z,1.99
2018-12-14T11:16:57.855Z,1.93
2018-12-14T11:19:25.320Z,2.02
2018-12-14T11:21:52.826Z,2.21
2018-12-14T11:24:20.309Z,2.26
2018-12-14T11:26:47.836Z,2.07
2018-12-14T11:29:15.390Z,2.28
2018-12-14T11:31:42.946Z,2.25
2018-12-14T11:34:10.500Z,2.25
2018-12-14T11:36:38.002Z,2.31
2018-12-14T11:39:06.200Z,2.41
2018-12-14T11:41:33.746Z,2.47
2018-12-14T11:44:01.207Z,2.38
2018-12-14T11:46:28.787Z,2.40
2018-12-14T11:48:56.414Z,2.27
2018-12-14T11:51:23.961Z,2.58
2018-12-14T11:53:51.437Z,2.42
2018-12-14T11:56:19.021Z,2.47
2018-12-14T11:58:46.606Z,2.46
2018-12-14T12:01:14.144Z,2.36
2018-12-14T12:03:42.883Z,2.26
2018-12-14T12:06:10.637Z,2.20
2018-12-14T12:08:38.206Z,2.34
2018-12-14T12:11:05.702Z,2.18
2018-12-14T12:13:33.212Z,1.96
2018-12-14T12:16:00.709Z,2.19
2018-12-14T12:18:28.236Z,2.27
2018-12-14T12:20:55.751Z,2.41
2018-12-14T12:23:23.853Z,2.41
2018-12-14T12:25:51.346Z,2.52
2018-12-14T12:28:18.916Z,2.06
2018-12-14T12:30:46.625Z,2.19
2018-12-14T12:33:14.148Z,2.38
2018-12-14T12:35:41.795Z,2.30
2018-12-14T12:38:09.309Z,2.04
2018-12-14T12:40:37.474Z,1.96
2018-12-14T12:43:04.958Z,1.95
2018-12-14T12:45:32.490Z,1.91
2018-12-14T12:48:00.045Z,1.97
2018-12-14T12:50:27.526Z,2.05
2018-12-14T12:52:55.165Z,2.02
2018-12-14T12:55:22.710Z,2.14
2018-12-14T12:57:50.186Z,1.94
2018-12-14T13:00:17.765Z,2.10
2018-12-14T13:02:45.247Z,2.18
2018-12-14T13:05:12.808Z,2.15
2018-12-14T13:07:40.320Z,2.15
2018-12-14T13:10:07.855Z,1.93
2018-12-14T13:12:35.342Z,1.83
2018-12-14T13:15:03.125Z,1.77
2018-12-14T13:17:30.693Z,1.51
2018-12-14T13:19:58.189Z,1.63
2018-12-14T13:22:25.691Z,1.64
2018-12-14T13:24:53.259Z,1.70
2018-12-14T13:27:20.788Z,1.79
2018-12-14T13:29:48.327Z,1.59
2018-12-14T13:32:16.742Z,1.78
2018-12-14T13:34:44.237Z,1.80
2018-12-14T13:37:11.700Z,1.80
2018-12-14T13:39:39.206Z,1.84
2018-12-14T13:42:06.815Z,1.89
2018-12-14T13:44:34.649Z,1.59
2018-12-14T13:47:02.214Z,1.82
2018-12-14T13:49:29.878Z,1.65
2018-12-14T13:51:57.436Z,1.72
2018-12-14T13:54:24.928Z,1.87
2018-12-14T13:56:52.541Z,1.79
2018-12-14T13:59:20.023Z,1.69
2018-12-14T14:01:47.584Z,1.74
2018-12-14T14:04:15.030Z,1.86
2018-12-14T14:06:42.511Z,1.82
2018-12-14T14:09:10.083Z,1.87
2018-12-14T14:11:37.604Z,1.94
2018-12-14T14:14:05.121Z,1.99
2018-12-14T14:16:32.575Z,1.90
2018-12-14T14:19:00.063Z,1.71
2018-12-14T14:21:27.559Z,1.87
2018-12-14T14:23:55.129Z,1.83
2018-12-14T14:26:22.589Z,1.72
2018-12-14T14:28:50.069Z,1.76
2018-12-14T14:31:17.583Z,1.79
2018-12-14T14:33:45.115Z,1.87
2018-12-14T14:36:12.634Z,1.73
2018-12-14T14:38:40.094Z,1.66
2018-12-14T14:41:07.622Z,1.73
2018-12-14T14:43:35.132Z,1.84
2018-12-14T14:46:02.711Z,1.71
2018-12-14T14:48:30.293Z,1.62
2018-12-14T14:50:57.831Z,1.65
2018-12-14T14:53:25.418Z,1.57
2018-12-14T14:55:52.861Z,1.64
2018-12-14T14:58:20.421Z,1.52
2018-12-14T15:00:47.920Z,1.45
2018-12-14T15:03:15.369Z,1.30
2018-12-14T15:05:42.908Z,1.29
2018-12-14T15:08:10.409Z,1.47
2018-12-14T15:10:37.875Z,1.68
2018-12-14T15:13:05.418Z,1.72
2018-12-14T15:15:32.890Z,1.82
2018-12-14T15:18:00.371Z,1.69
2018-12-14T15:20:27.821Z,1.72
2018-12-14T15:22:55.403Z,1.58
2018-12-14T15:25:22.973Z,1.73
2018-12-14T15:27:50.494Z,1.51
2018-12-14T15:30:18.082Z,1.61
2018-12-14T15:32:45.576Z,1.54
2018-12-14T15:35:13.054Z,1.46
2018-12-14T15:37:40.570Z,1.33
2018-12-14T15:40:09.078Z,1.33
2018-12-14T15:42:36.554Z,1.31
2018-12-14T15:45:04.375Z,1.42
2018-12-14T15:47:31.829Z,1.50
2018-12-14T15:49:59.331Z,1.59
2018-12-14T15:52:27.979Z,1.65
2018-12-14T15:54:55.793Z,1.54
2018-12-14T15:57:23.279Z,1.41
2018-12-14T15:59:50.786Z,1.75
2018-12-14T16:02:18.296Z,1.73
2018-12-14T16:04:45.916Z,1.73
2018-12-14T16:07:13.443Z,1.67
2018-12-14T16:09:40.994Z,1.71
2018-12-14T16:12:08.501Z,1.64
2018-12-14T16:14:36.199Z,1.36
2018-12-14T16:17:03.873Z,1.56
2018-12-14T16:19:31.390Z,1.47
2018-12-14T16:21:59.064Z,1.58
2018-12-14T16:24:26.553Z,1.69
2018-12-14T16:26:54.014Z,1.60
2018-12-14T16:29:21.491Z,1.51
2018-12-14T16:31:49.030Z,1.63
2018-12-14T16:34:16.508Z,1.65
2018-12-14T16:36:44.076Z,1.64
2018-12-14T16:39:11.575Z,1.63
2018-12-14T16:41:39.076Z,1.64
2018-12-14T16:44:06.609Z,1.70
2018-12-14T16:46:34.110Z,1.58
2018-12-14T16:49:01.595Z,1.61
2018-12-14T16:51:29.955Z,1.74
2018-12-14T16:54:04.847Z,1.57
2018-12-14T16:56:32.382Z,1.63
2018-12-14T16:58:59.947Z,1.51
2018-12-14T17:01:27.600Z,1.56
2018-12-14T17:03:55.077Z,1.57
2018-12-14T17:06:22.591Z,1.62
2018-12-14T17:08:50.143Z,1.68
2018-12-14T17:11:17.695Z,1.73
2018-12-14T17:13:45.194Z,1.60
2018-12-14T17:16:12.912Z,1.59
2018-12-14T17:18:40.370Z,1.64
2018-12-14T17:21:07.847Z,1.44
2018-12-14T17:23:35.373Z,1.47
2018-12-14T17:26:02.839Z,1.25
2018-12-14T17:28:30.322Z,1.42
2018-12-14T17:30:57.822Z,1.40
2018-12-14T17:33:25.440Z,1.65
2018-12-14T17:35:52.922Z,1.67
2018-12-14T17:38:20.415Z,1.33
2018-12-14T17:40:48.529Z,1.52
2018-12-14T17:43:16.118Z,1.52
2018-12-14T17:45:43.628Z,1.39
2018-12-14T17:48:11.135Z,1.36
2018-12-14T17:50:38.706Z,1.45
2018-12-14T17:53:06.190Z,1.40
2018-12-14T17:55:33.775Z,1.39
2018-12-14T17:58:01.307Z,1.32
2018-12-14T18:00:28.799Z,1.41
2018-12-14T18:02:56.285Z,1.29
2018-12-14T18:05:23.785Z,1.25
2018-12-14T18:07:51.243Z,1.28
2018-12-14T18:10:18.767Z,1.38
2018-12-14T18:12:46.324Z,1.35
2018-12-14T18:15:13.851Z,1.26
2018-12-14T18:17:41.353Z,1.11
2018-12-14T18:20:08.928Z,1.14
2018-12-14T18:22:36.748Z,1.23
2018-12-14T18:25:04.889Z,1.38
2018-12-14T18:27:32.367Z,1.31
2018-12-14T18:30:00.092Z,1.17
2018-12-14T18:32:27.559Z,1.10
2018-12-14T18:34:55.049Z,1.26
2018-12-14T18:37:22.514Z,1.17
2018-12-14T18:39:50.022Z,1.06
2018-12-14T18:42:17.488Z,1.18
2018-12-14T18:44:44.990Z,1.21
2018-12-14T18:47:12.501Z,1.09
2018-12-14T18:49:39.999Z,1.19
2018-12-14T18:52:07.588Z,1.24
2018-12-14T18:54:35.119Z,1.15
2018-12-14T18:57:02.659Z,1.17
2018-12-14T18:59:30.257Z,1.26
2018-12-14T19:01:57.771Z,1.18
2018-12-14T19:04:25.352Z,1.20
2018-12-14T19:06:53.098Z,1.21
2018-12-14T19:09:20.712Z,1.32
2018-12-14T19:11:48.193Z,1.25
2018-12-14T19:14:16.391Z,1.37
2018-12-14T19:16:43.890Z,1.30
2018-12-14T19:19:11.455Z,1.38
2018-12-14T19:21:39.046Z,1.31
2018-12-14T19:24:06.584Z,1.21
2018-12-14T19:26:34.068Z,1.14
2018-12-14T19:29:02.194Z,1.16
2018-12-14T19:31:29.900Z,1.25
2018-12-14T19:33:57.435Z,1.12
2018-12-14T19:36:24.950Z,1.03
2018-12-14T19:38:52.450Z,1.24
2018-12-14T19:41:19.940Z,1.16
2018-12-14T19:43:47.461Z,1.12
2018-12-14T19:46:14.960Z,1.04
2018-12-14T19:48:42.500Z,1.11
2018-12-14T19:51:10.012Z,1.10
2018-12-14T19:53:37.570Z,1.24
2018-12-14T19:56:05.117Z,1.26
2018-12-14T19:58:32.692Z,1.18
2018-12-14T20:01:00.344Z,1.14
2018-12-14T20:03:27.941Z,1.22
2018-12-14T20:05:56.099Z,1.13
2018-12-14T20:08:24.306Z,1.05
2018-12-14T20:10:51.839Z,1.15
2018-12-14T20:13:19.603Z,1.22
2018-12-14T20:15:47.130Z,1.07
2018-12-14T20:18:14.642Z,1.11
2018-12-14T20:20:42.328Z,1.01
2018-12-14T20:23:10.698Z,1.15
2018-12-14T20:25:38.787Z,1.17
2018-12-14T20:28:06.280Z,1.26
2018-12-14T20:30:33.758Z,1.25
2018-12-14T20:33:03.379Z,1.26
2018-12-14T20:35:30.971Z,1.10
2018-12-14T20:37:58.758Z,1.28
2018-12-14T20:40:26.437Z,1.24
2018-12-14T20:42:53.962Z,1.24
2018-12-14T20:45:21.539Z,1.29
2018-12-14T20:47:49.704Z,1.38
2018-12-14T20:50:17.202Z,1.31
2018-12-14T20:52:44.718Z,1.31
2018-12-14T20:55:12.332Z,1.15
2018-12-14T20:57:40.203Z,1.23
2018-12-14T21:00:08.689Z,1.14
2018-12-14T21:02:37.080Z,1.24
2018-12-14T21:05:05.457Z,1.12
2018-12-14T21:07:32.998Z,0.95
2018-12-14T21:10:00.534Z,0.97
2018-12-14T21:12:29.467Z,1.07
2018-12-14T21:14:57.057Z,1.01
2018-12-14T21:17:24.532Z,1.00
2018-12-14T21:19:53.615Z,0.98
2018-12-14T21:22:21.155Z,0.88
2018-12-14T21:24:48.733Z,1.05
2018-12-14T21:27:16.205Z,1.12
2018-12-14T21:29:43.815Z,1.09
2018-12-14T21:32:11.314Z,1.15
2018-12-14T21:34:38.794Z,1.16
2018-12-14T21:37:06.310Z,1.12
2018-12-14T21:39:34.672Z,1.13
2018-12-14T21:42:02.145Z,0.95
2018-12-14T21:44:29.638Z,1.08
2018-12-14T21:46:57.901Z,1.09
2018-12-14T21:49:26.036Z,0.98
2018-12-14T21:51:53.500Z,0.90
2018-12-14T21:54:21.032Z,0.92
2018-12-14T21:56:48.477Z,1.10
2018-12-14T21:59:15.955Z,1.09
2018-12-14T22:01:43.540Z,1.02
2018-12-14T22:04:11.089Z,1.13
2018-12-14T22:06:38.564Z,1.10
2018-12-14T22:09:07.542Z,0.99
2018-12-14T22:11:35.031Z,0.82
2018-12-14T22:14:02.603Z,0.58
2018-12-14T22:16:30.105Z,0.65
2018-12-14T22:18:57.629Z,0.62
2018-12-14T22:21:25.275Z,0.80
2018-12-14T22:23:52.828Z,0.77
2018-12-14T22:26:20.428Z,0.59
2018-12-14T22:28:47.987Z,0.67
2018-12-14T22:31:15.536Z,0.71
2018-12-14T22:33:43.071Z,0.77
2018-12-14T22:36:10.550Z,0.86
2018-12-14T22:38:38.142Z,0.72
2018-12-14T22:41:05.663Z,0.67
2018-12-14T22:43:33.131Z,0.64
2018-12-14T22:46:00.635Z,0.58
2018-12-14T22:48:28.166Z,0.76
2018-12-14T22:50:55.674Z,0.75
2018-12-14T22:53:23.191Z,0.65
2018-12-14T22:55:50.671Z,0.75
2018-12-14T22:58:18.207Z,0.68
2018-12-14T23:00:51.737Z,0.67
2018-12-14T23:03:19.327Z,0.69
2018-12-14T23:05:46.789Z,0.72
2018-12-14T23:08:14.259Z,0.68
2018-12-14T23:10:41.771Z,0.57
2018-12-14T23:13:09.290Z,0.80
2018-12-14T23:15:36.797Z,0.92
2018-12-14T23:18:04.320Z,0.87
2018-12-14T23:20:31.837Z,0.82
2018-12-14T23:22:59.398Z,0.76
2018-12-14T23:25:26.919Z,0.67
2018-12-14T23:27:54.433Z,0.61
2018-12-14T23:30:21.985Z,0.61
2018-12-14T23:32:49.479Z,0.57
2018-12-14T23:35:16.957Z,0.39
2018-12-14T23:37:44.430Z,0.41
2018-12-14T23:40:11.933Z,0.57
2018-12-14T23:42:39.416Z,0.57
2018-12-14T23:45:06.971Z,0.55
2018-12-14T23:47:34.525Z,0.56
2018-12-14T23:50:02.127Z,0.60
2018-12-14T23:52:29.616Z,0.59
2018-12-14T23:54:57.139Z,0.59
2018-12-14T23:57:24.689Z,0.57
2018-12-14T23:59:52.162Z,0.59
